Time;durP1;ratioP1;P1;durP2;ratioP2;P2;SDS_P1;SDS_P2;PMS_P1;PMS_P2;Temp;Humidity;BMP_temperature;BMP_pressure;BME280_temperature;BME280_humidity;BME280_pressure;Samples;Min_cycle;Max_cycle;Signal;HPM_P1;HPM_P2
2021/05/16 00:01:00;;;;;;;;;2.00;0.75;;;;;;;;5056246;28;9659;-75
2021/05/16 00:03:26;;;;;;;;;0.75;0.75;;;;;;;;5055818;28;9646;-76
2021/05/16 00:05:54;;;;;;;;;1.75;1.00;;;;;;;;5054385;28;9745;-75
2021/05/16 00:08:20;;;;;;;;;1.00;1.00;;;;;;;;5058084;28;9726;-76
2021/05/16 00:10:47;;;;;;;;;0.00;0.00;;;;;;;;5057943;28;9653;-76
2021/05/16 00:13:14;;;;;;;;;1.00;1.00;;;;;;;;5053522;28;9705;-74
2021/05/16 00:15:41;;;;;;;;;1.00;1.00;;;;;;;;5054799;28;9823;-75
2021/05/16 00:18:09;;;;;;;;;0.75;0.00;;;;;;;;5061675;28;9641;-75
2021/05/16 00:20:38;;;;;;;;;0.50;0.50;;;;;;;;5061862;28;9650;-75
2021/05/16 00:23:06;;;;;;;;;1.00;1.00;;;;;;;;5061541;28;9636;-75
2021/05/16 00:25:34;;;;;;;;;1.25;1.00;;;;;;;;5051278;28;9981;-75
2021/05/16 00:28:01;;;;;;;;;2.00;0.00;;;;;;;;5055354;28;9563;-76
2021/05/16 00:30:29;;;;;;;;;1.00;1.00;;;;;;;;5056979;28;9621;-75
2021/05/16 00:32:57;;;;;;;;;0.00;0.00;;;;;;;;5066238;28;9641;-76
2021/05/16 00:35:27;;;;;;;;;0.00;0.00;;;;;;;;5053966;28;9775;-75
2021/05/16 00:37:54;;;;;;;;;0.00;0.00;;;;;;;;5053767;28;10743;-76
2021/05/16 00:40:21;;;;;;;;;0.00;0.00;;;;;;;;5061447;28;9808;-76
2021/05/16 00:42:48;;;;;;;;;0.00;0.00;;;;;;;;5060694;28;10372;-77
2021/05/16 00:45:17;;;;;;;;;0.25;0.25;;;;;;;;5043377;28;9928;-77
2021/05/16 00:47:49;;;;;;;;;0.00;0.00;;;;;;;;5057334;28;9766;-76
2021/05/16 00:50:18;;;;;;;;;2.00;0.25;;;;;;;;5050576;28;9789;-77
2021/05/16 00:52:46;;;;;;;;;0.00;0.00;;;;;;;;5036453;28;9862;-75
2021/05/16 00:55:14;;;;;;;;;1.00;0.00;;;;;;;;5058308;28;10627;-76
2021/05/16 00:57:42;;;;;;;;;0.00;0.00;;;;;;;;5058288;28;9693;-76
2021/05/16 01:00:14;;;;;;;;;0.00;0.00;;;;;;;;5060774;28;9961;-75
2021/05/16 01:02:41;;;;;;;;;0.00;0.00;;;;;;;;5061423;28;10517;-76
2021/05/16 01:05:10;;;;;;;;;0.00;0.00;;;;;;;;5049141;28;10041;-76
2021/05/16 01:07:39;;;;;;;;;0.00;0.00;;;;;;;;5062179;28;9944;-76
2021/05/16 01:10:10;;;;;;;;;1.00;0.00;;;;;;;;5059118;28;10072;-76
2021/05/16 01:12:41;;;;;;;;;0.25;0.00;;;;;;;;5053500;28;9894;-76
2021/05/16 01:15:09;;;;;;;;;0.00;0.00;;;;;;;;5059238;28;9991;-75
2021/05/16 01:17:37;;;;;;;;;0.00;0.00;;;;;;;;5053051;28;10008;-76
2021/05/16 01:20:06;;;;;;;;;0.00;0.00;;;;;;;;5056500;28;9933;-76
2021/05/16 01:22:34;;;;;;;;;0.25;0.00;;;;;;;;5055490;28;10070;-75
2021/05/16 01:25:02;;;;;;;;;0.00;0.00;;;;;;;;5051674;28;9864;-75
2021/05/16 01:27:29;;;;;;;;;0.00;0.00;;;;;;;;5052081;28;10042;-76
2021/05/16 01:29:56;;;;;;;;;0.00;0.00;;;;;;;;5062233;28;10183;-75
2021/05/16 01:32:24;;;;;;;;;2.00;0.00;;;;;;;;5042031;28;10041;-77
2021/05/16 01:34:52;;;;;;;;;0.00;0.00;;;;;;;;5056977;28;10095;-75
2021/05/16 01:37:19;;;;;;;;;0.50;0.00;;;;;;;;5058655;28;10170;-76
2021/05/16 01:39:48;;;;;;;;;1.00;0.00;;;;;;;;5054641;28;10073;-75
2021/05/16 01:42:16;;;;;;;;;2.00;0.00;;;;;;;;5057580;28;10201;-75
2021/05/16 01:44:43;;;;;;;;;0.00;0.00;;;;;;;;5058433;28;10061;-74
2021/05/16 01:47:10;;;;;;;;;0.00;0.00;;;;;;;;5045716;28;10215;-74
2021/05/16 01:49:44;;;;;;;;;0.50;0.50;;;;;;;;5035390;28;10227;-76
2021/05/16 01:52:11;;;;;;;;;0.00;0.00;;;;;;;;5052693;28;10336;-74
2021/05/16 01:54:38;;;;;;;;;0.00;0.00;;;;;;;;5063094;28;10379;-74
2021/05/16 01:57:08;;;;;;;;;0.00;0.00;;;;;;;;5045539;28;10492;-74
2021/05/16 01:59:36;;;;;;;;;0.00;0.00;;;;;;;;5056723;28;10422;-74
2021/05/16 02:02:04;;;;;;;;;0.00;0.00;;;;;;;;5057401;28;10111;-74
2021/05/16 02:04:33;;;;;;;;;0.00;0.00;;;;;;;;5068419;28;11017;-74
2021/05/16 02:07:00;;;;;;;;;0.50;0.50;;;;;;;;5056355;28;11185;-74
2021/05/16 02:09:28;;;;;;;;;0.00;0.00;;;;;;;;5057191;28;10161;-74
2021/05/16 02:11:55;;;;;;;;;0.00;0.00;;;;;;;;5056993;28;10376;-74
2021/05/16 02:14:28;;;;;;;;;0.50;0.50;;;;;;;;5057245;28;10337;-74
2021/05/16 02:16:55;;;;;;;;;2.00;0.75;;;;;;;;5054108;28;10240;-74
2021/05/16 02:19:22;;;;;;;;;2.00;0.00;;;;;;;;5046928;28;10095;-74
2021/05/16 02:21:50;;;;;;;;;2.00;0.00;;;;;;;;5064386;28;9941;-74
2021/05/16 02:24:17;;;;;;;;;3.00;0.00;;;;;;;;5050436;28;10035;-75
2021/05/16 02:26:44;;;;;;;;;0.00;0.00;;;;;;;;5053779;28;10007;-75
2021/05/16 02:29:11;;;;;;;;;0.00;0.00;;;;;;;;5061402;28;9726;-74
2021/05/16 02:31:40;;;;;;;;;0.00;0.00;;;;;;;;5043113;28;9812;-74
2021/05/16 02:34:07;;;;;;;;;1.25;1.25;;;;;;;;5043512;28;9721;-74
2021/05/16 02:36:34;;;;;;;;;1.00;0.00;;;;;;;;5042704;28;10045;-74
2021/05/16 02:39:02;;;;;;;;;0.00;0.00;;;;;;;;5059074;28;9778;-74
2021/05/16 02:41:29;;;;;;;;;0.25;0.25;;;;;;;;5048125;28;9984;-74
2021/05/16 02:43:56;;;;;;;;;0.00;0.00;;;;;;;;5053914;28;9899;-74
2021/05/16 02:46:22;;;;;;;;;0.00;0.00;;;;;;;;5056339;28;10126;-74
2021/05/16 02:48:50;;;;;;;;;0.00;0.00;;;;;;;;5058223;28;9856;-74
2021/05/16 02:51:20;;;;;;;;;0.00;0.00;;;;;;;;5058244;28;9863;-75
2021/05/16 02:53:47;;;;;;;;;0.25;0.00;;;;;;;;5047110;28;10039;-75
2021/05/16 02:56:14;;;;;;;;;0.00;0.00;;;;;;;;5056792;28;10052;-74
2021/05/16 02:58:42;;;;;;;;;1.00;1.00;;;;;;;;5019639;28;10070;-74
2021/05/16 03:01:10;;;;;;;;;0.50;0.00;;;;;;;;5043613;28;10064;-74
2021/05/16 03:03:38;;;;;;;;;0.75;0.75;;;;;;;;5057754;28;10184;-74
2021/05/16 03:06:06;;;;;;;;;0.75;0.75;;;;;;;;5056104;28;10105;-74
2021/05/16 03:08:33;;;;;;;;;0.00;0.00;;;;;;;;5061338;28;10096;-74
2021/05/16 03:11:00;;;;;;;;;2.00;0.00;;;;;;;;5058276;28;9780;-74
2021/05/16 03:13:27;;;;;;;;;0.00;0.00;;;;;;;;5061506;28;9837;-74
2021/05/16 03:15:55;;;;;;;;;1.00;1.00;;;;;;;;5048707;28;9710;-74
2021/05/16 03:18:22;;;;;;;;;1.25;1.25;;;;;;;;5051746;28;9812;-74
2021/05/16 03:20:49;;;;;;;;;0.25;0.25;;;;;;;;5050842;28;9793;-76
2021/05/16 03:23:17;;;;;;;;;0.25;0.25;;;;;;;;5058252;28;9680;-74
2021/05/16 03:25:45;;;;;;;;;1.00;1.00;;;;;;;;5050569;28;9552;-74
2021/05/16 03:28:12;;;;;;;;;1.00;1.00;;;;;;;;5059470;28;9821;-75
2021/05/16 03:30:39;;;;;;;;;0.00;0.00;;;;;;;;5031102;28;9575;-77
2021/05/16 03:33:05;;;;;;;;;1.00;1.00;;;;;;;;5049530;28;9700;-74
2021/05/16 03:35:32;;;;;;;;;0.25;0.25;;;;;;;;5052517;28;9661;-76
2021/05/16 03:38:00;;;;;;;;;1.00;1.00;;;;;;;;5061034;28;9904;-74
2021/05/16 03:40:28;;;;;;;;;0.50;0.50;;;;;;;;5057629;28;9815;-74
2021/05/16 03:42:55;;;;;;;;;0.00;0.00;;;;;;;;5060654;28;9796;-73
2021/05/16 03:45:22;;;;;;;;;1.00;1.00;;;;;;;;5037066;28;9929;-73
2021/05/16 03:47:49;;;;;;;;;0.00;0.00;;;;;;;;5062091;28;9752;-73
2021/05/16 03:50:16;;;;;;;;;1.25;1.00;;;;;;;;5063730;28;9897;-74
2021/05/16 03:52:43;;;;;;;;;0.00;0.00;;;;;;;;5060765;28;9824;-74
2021/05/16 03:55:11;;;;;;;;;3.50;1.00;;;;;;;;5050551;28;9678;-74
2021/05/16 03:57:40;;;;;;;;;0.00;0.00;;;;;;;;5063044;28;9634;-73
2021/05/16 04:00:09;;;;;;;;;0.00;0.00;;;;;;;;5056117;28;10414;-73
2021/05/16 04:02:36;;;;;;;;;0.00;0.00;;;;;;;;5054958;28;9588;-75
2021/05/16 04:05:03;;;;;;;;;0.75;0.75;;;;;;;;5059798;28;10879;-76
2021/05/16 04:07:30;;;;;;;;;0.00;0.00;;;;;;;;5064799;28;9610;-75
2021/05/16 04:09:57;;;;;;;;;2.00;0.00;;;;;;;;5076820;28;9571;-74
2021/05/16 04:12:24;;;;;;;;;1.00;0.00;;;;;;;;5056232;28;9666;-77
2021/05/16 04:14:52;;;;;;;;;2.00;0.00;;;;;;;;5048229;28;9620;-75
2021/05/16 04:17:19;;;;;;;;;0.00;0.00;;;;;;;;5054169;28;9662;-75
2021/05/16 04:19:46;;;;;;;;;0.00;0.00;;;;;;;;5053237;28;9696;-75
2021/05/16 04:22:13;;;;;;;;;0.00;0.00;;;;;;;;5058044;28;9695;-75
2021/05/16 04:24:41;;;;;;;;;2.50;0.00;;;;;;;;5056106;28;9787;-74
2021/05/16 04:27:08;;;;;;;;;1.00;1.00;;;;;;;;5061261;28;9793;-74
2021/05/16 04:29:35;;;;;;;;;1.50;1.00;;;;;;;;5054219;28;9900;-75
2021/05/16 04:32:03;;;;;;;;;0.00;0.00;;;;;;;;5054407;28;9770;-75
2021/05/16 04:34:30;;;;;;;;;0.75;0.75;;;;;;;;5047430;28;11010;-74
2021/05/16 04:36:57;;;;;;;;;0.00;0.00;;;;;;;;5060695;28;9758;-73
2021/05/16 04:39:24;;;;;;;;;0.75;0.75;;;;;;;;5064268;28;9709;-74
2021/05/16 04:41:50;;;;;;;;;0.00;0.00;;;;;;;;5047185;28;9660;-74
2021/05/16 04:44:17;;;;;;;;;2.00;1.00;;;;;;;;5052635;28;9720;-74
2021/05/16 04:46:44;;;;;;;;;1.00;1.00;;;;;;;;5062984;28;9659;-75
2021/05/16 04:49:13;;;;;;;;;1.00;1.00;;;;;;;;5062591;28;9746;-74
2021/05/16 04:51:39;;;;;;;;;2.00;2.00;;;;;;;;5054565;28;9725;-74
2021/05/16 04:54:06;;;;;;;;;0.00;0.00;;;;;;;;5060115;28;9557;-75
2021/05/16 04:56:33;;;;;;;;;4.00;1.00;;;;;;;;5053502;28;9548;-75
2021/05/16 04:59:02;;;;;;;;;1.00;1.00;;;;;;;;5056255;28;9560;-74
2021/05/16 05:01:29;;;;;;;;;2.75;2.75;;;;;;;;5051849;28;9437;-75
2021/05/16 05:03:56;;;;;;;;;1.25;1.25;;;;;;;;5058080;28;9557;-74
2021/05/16 05:06:24;;;;;;;;;1.00;1.00;;;;;;;;5060043;28;10401;-75
2021/05/16 05:08:51;;;;;;;;;1.00;1.00;;;;;;;;5051010;28;9615;-75
2021/05/16 05:11:18;;;;;;;;;2.50;2.25;;;;;;;;5043668;28;9567;-75
2021/05/16 05:13:45;;;;;;;;;2.75;1.50;;;;;;;;5068248;28;9797;-75
2021/05/16 05:16:12;;;;;;;;;2.50;2.50;;;;;;;;5064675;28;9747;-75
2021/05/16 05:18:38;;;;;;;;;5.50;2.75;;;;;;;;5041676;28;9485;-74
2021/05/16 05:21:07;;;;;;;;;2.00;2.00;;;;;;;;5057567;28;9698;-74
2021/05/16 05:23:35;;;;;;;;;6.25;2.00;;;;;;;;5052746;28;9741;-74
2021/05/16 05:26:02;;;;;;;;;6.00;3.00;;;;;;;;5057594;28;9791;-74
2021/05/16 05:28:29;;;;;;;;;2.00;2.00;;;;;;;;5042532;28;9715;-77
2021/05/16 05:30:56;;;;;;;;;4.50;3.25;;;;;;;;5059280;28;9656;-74
2021/05/16 05:33:23;;;;;;;;;8.25;3.00;;;;;;;;5032027;28;9783;-73
2021/05/16 05:35:51;;;;;;;;;3.00;3.00;;;;;;;;5061909;28;9819;-73
2021/05/16 05:38:18;;;;;;;;;6.25;4.50;;;;;;;;5061634;28;9857;-75
2021/05/16 05:40:46;;;;;;;;;3.00;3.00;;;;;;;;5057443;28;9866;-74
2021/05/16 05:43:13;;;;;;;;;5.75;3.00;;;;;;;;5042647;28;10677;-73
2021/05/16 05:45:40;;;;;;;;;9.25;3.00;;;;;;;;5064120;28;9794;-74
2021/05/16 05:48:08;;;;;;;;;6.00;3.75;;;;;;;;5072354;28;9706;-73
2021/05/16 05:50:34;;;;;;;;;3.00;3.00;;;;;;;;5065391;28;9919;-74
2021/05/16 05:53:03;;;;;;;;;3.00;1.50;;;;;;;;5056147;28;9602;-73
2021/05/16 05:55:30;;;;;;;;;3.75;3.75;;;;;;;;5060403;28;9641;-73
2021/05/16 05:57:59;;;;;;;;;3.00;2.00;;;;;;;;5063099;28;9622;-73
2021/05/16 06:00:28;;;;;;;;;3.25;3.25;;;;;;;;5057833;28;9550;-73
2021/05/16 06:02:56;;;;;;;;;4.00;3.00;;;;;;;;5064607;28;9465;-74
2021/05/16 06:05:25;;;;;;;;;2.00;2.00;;;;;;;;5059647;28;9594;-74
2021/05/16 06:07:52;;;;;;;;;4.75;3.00;;;;;;;;5063355;28;9556;-74
2021/05/16 06:10:19;;;;;;;;;7.00;3.00;;;;;;;;5063394;28;9468;-73
2021/05/16 06:12:46;;;;;;;;;2.75;2.75;;;;;;;;5061368;28;9679;-73
2021/05/16 06:15:15;;;;;;;;;2.75;2.75;;;;;;;;5043095;28;9480;-73
2021/05/16 06:17:42;;;;;;;;;2.00;2.00;;;;;;;;5078144;28;9571;-74
2021/05/16 06:20:10;;;;;;;;;2.00;2.00;;;;;;;;5061526;28;9563;-75
2021/05/16 06:22:37;;;;;;;;;4.25;3.00;;;;;;;;5052774;28;9548;-74
2021/05/16 06:25:05;;;;;;;;;2.25;2.25;;;;;;;;5060002;28;9493;-73
2021/05/16 06:27:32;;;;;;;;;4.00;4.00;;;;;;;;5058678;28;9406;-73
2021/05/16 06:29:59;;;;;;;;;2.00;2.00;;;;;;;;5062723;28;9628;-73
2021/05/16 06:32:27;;;;;;;;;4.00;2.00;;;;;;;;5061705;28;10294;-74
2021/05/16 06:34:53;;;;;;;;;3.25;3.25;;;;;;;;5059870;28;9747;-74
2021/05/16 06:37:21;;;;;;;;;2.25;2.25;;;;;;;;5063055;28;9486;-74
2021/05/16 06:39:48;;;;;;;;;3.00;3.00;;;;;;;;5062522;28;9499;-74
2021/05/16 06:42:14;;;;;;;;;3.50;2.00;;;;;;;;5060548;28;9559;-72
2021/05/16 06:44:41;;;;;;;;;2.25;2.25;;;;;;;;5053739;28;9629;-72
2021/05/16 06:47:08;;;;;;;;;3.75;2.25;;;;;;;;5059968;28;9434;-73
2021/05/16 06:49:37;;;;;;;;;4.00;3.00;;;;;;;;5059627;28;9529;-71
2021/05/16 06:52:05;;;;;;;;;1.00;1.00;;;;;;;;5050113;28;10287;-72
2021/05/16 06:54:32;;;;;;;;;4.25;2.75;;;;;;;;5061400;28;9392;-72
2021/05/16 06:56:59;;;;;;;;;4.75;2.75;;;;;;;;5056522;28;9514;-73
2021/05/16 06:59:26;;;;;;;;;5.25;4.75;;;;;;;;5057801;28;9412;-72
2021/05/16 07:01:53;;;;;;;;;3.00;3.00;;;;;;;;5073325;28;9426;-73
2021/05/16 07:04:20;;;;;;;;;1.00;1.00;;;;;;;;5055491;28;9255;-73
2021/05/16 07:06:48;;;;;;;;;3.00;3.00;;;;;;;;5059374;28;10332;-74
2021/05/16 07:09:15;;;;;;;;;2.67;2.00;;;;;;;;5061966;28;9310;-74
2021/05/16 07:11:41;;;;;;;;;2.33;2.33;;;;;;;;5066276;28;9238;-73
2021/05/16 07:14:08;;;;;;;;;3.00;3.00;;;;;;;;5042589;28;9335;-74
2021/05/16 07:16:35;;;;;;;;;5.33;2.67;;;;;;;;5060254;28;9293;-73
2021/05/16 07:19:03;;;;;;;;;7.00;4.00;;;;;;;;5061855;28;9361;-71
2021/05/16 07:21:29;;;;;;;;;2.33;2.00;;;;;;;;5061920;28;9275;-72
2021/05/16 07:23:57;;;;;;;;;3.00;3.00;;;;;;;;5069075;28;9185;-72
2021/05/16 07:26:24;;;;;;;;;3.00;3.00;;;;;;;;5061811;28;9364;-72
2021/05/16 07:28:51;;;;;;;;;2.00;2.00;;;;;;;;5070909;28;9249;-72
2021/05/16 07:31:18;;;;;;;;;4.67;3.00;;;;;;;;5060607;28;9031;-72
2021/05/16 07:33:45;;;;;;;;;9.67;5.00;;;;;;;;5057920;28;9191;-72
2021/05/16 07:36:12;;;;;;;;;5.33;5.33;;;;;;;;5055078;28;9867;-72
2021/05/16 07:38:39;;;;;;;;;3.00;1.67;;;;;;;;5054159;28;9194;-71
2021/05/16 07:41:07;;;;;;;;;4.00;4.00;;;;;;;;5057845;28;8964;-71
2021/05/16 07:43:34;;;;;;;;;3.67;3.67;;;;;;;;5055570;28;9023;-71
2021/05/16 07:46:01;;;;;;;;;11.33;8.33;;;;;;;;5058326;28;8964;-72
2021/05/16 07:48:29;;;;;;;;;3.00;3.00;;;;;;;;5065079;28;9069;-73
2021/05/16 07:50:57;;;;;;;;;2.00;2.00;;;;;;;;5057018;28;8852;-71
2021/05/16 07:53:24;;;;;;;;;2.75;2.75;;;;;;;;5041890;28;8864;-72
2021/05/16 07:55:52;;;;;;;;;4.50;3.00;;;;;;;;5058501;28;8908;-72
2021/05/16 07:58:20;;;;;;;;;4.50;3.00;;;;;;;;5060417;28;8873;-72
2021/05/16 08:00:47;;;;;;;;;4.00;2.75;;;;;;;;5061771;28;8877;-71
2021/05/16 08:03:14;;;;;;;;;3.00;2.75;;;;;;;;5061791;28;8894;-72
2021/05/16 08:05:41;;;;;;;;;3.25;3.00;;;;;;;;5060494;28;8956;-72
2021/05/16 08:08:08;;;;;;;;;3.67;3.67;;;;;;;;5057706;28;8832;-73
2021/05/16 08:10:34;;;;;;;;;5.00;3.25;;;;;;;;5059420;28;9740;-72
2021/05/16 08:13:01;;;;;;;;;3.67;3.67;;;;;;;;5048948;28;8864;-72
2021/05/16 08:15:29;;;;;;;;;2.00;2.00;;;;;;;;5059187;28;8973;-72
2021/05/16 08:17:57;;;;;;;;;1.33;1.33;;;;;;;;5062395;28;9706;-72
2021/05/16 08:20:24;;;;;;;;;3.67;3.00;;;;;;;;5060870;28;9801;-72
2021/05/16 08:22:51;;;;;;;;;2.00;1.25;;;;;;;;5040577;28;9828;-72
2021/05/16 08:25:19;;;;;;;;;3.50;2.25;;;;;;;;5055111;28;8853;-77
2021/05/16 08:27:46;;;;;;;;;3.00;3.00;;;;;;;;5061013;28;8871;-73
2021/05/16 08:30:14;;;;;;;;;2.00;2.00;;;;;;;;5064096;28;8950;-73
2021/05/16 08:32:43;;;;;;;;;3.00;1.00;;;;;;;;5063922;28;8900;-73
2021/05/16 08:35:11;;;;;;;;;4.00;2.50;;;;;;;;5064287;28;8883;-73
2021/05/16 08:37:38;;;;;;;;;4.25;2.50;;;;;;;;5061625;28;8900;-74
2021/05/16 08:40:06;;;;;;;;;3.50;1.25;;;;;;;;5049437;28;8872;-72
2021/05/16 08:42:33;;;;;;;;;4.00;3.00;;;;;;;;5062087;28;8878;-73
2021/05/16 08:45:00;;;;;;;;;2.00;2.00;;;;;;;;5063660;28;8860;-74
2021/05/16 08:47:28;;;;;;;;;1.75;1.75;;;;;;;;5063599;28;8860;-73
2021/05/16 08:49:55;;;;;;;;;3.00;2.00;;;;;;;;5059742;28;9724;-73
2021/05/16 08:52:22;;;;;;;;;3.25;3.00;;;;;;;;5065120;28;8860;-73
2021/05/16 08:54:53;;;;;;;;;0.75;0.75;;;;;;;;5061823;28;8898;-73
2021/05/16 08:57:20;;;;;;;;;1.50;1.50;;;;;;;;5047177;28;8856;-73
2021/05/16 09:00:12;;;;;;;;;0.75;0.75;;;;;;;;5061957;28;8856;-73
2021/05/16 09:03:01;;;;;;;;;1.50;1.50;;;;;;;;5066632;28;8816;-72
2021/05/16 09:05:33;;;;;;;;;1.75;1.75;;;;;;;;5058387;28;9932;-72
2021/05/16 09:08:01;;;;;;;;;1.00;1.00;;;;;;;;5061604;28;8895;-72
2021/05/16 09:10:28;;;;;;;;;1.00;1.00;;;;;;;;5064034;28;8860;-74
2021/05/16 09:13:07;;;;;;;;;2.00;2.00;;;;;;;;5061589;28;8968;-74
2021/05/16 09:15:35;;;;;;;;;1.50;1.00;;;;;;;;5064112;28;9000;-73
2021/05/16 09:18:02;;;;;;;;;1.75;1.00;;;;;;;;5061450;28;8979;-72
2021/05/16 09:20:30;;;;;;;;;0.00;0.00;;;;;;;;5062769;28;8856;-73
2021/05/16 09:22:57;;;;;;;;;0.25;0.25;;;;;;;;5062158;28;8856;-72
2021/05/16 09:25:26;;;;;;;;;0.00;0.00;;;;;;;;5061507;28;8864;-71
2021/05/16 09:27:53;;;;;;;;;0.00;0.00;;;;;;;;5064613;28;8963;-72
2021/05/16 09:30:31;;;;;;;;;0.00;0.00;;;;;;;;5060549;28;9668;-71
2021/05/16 09:33:01;;;;;;;;;0.00;0.00;;;;;;;;5060139;28;8933;-72
2021/05/16 09:35:40;;;;;;;;;0.00;0.00;;;;;;;;5062882;28;8936;-71
2021/05/16 09:38:13;;;;;;;;;1.00;0.00;;;;;;;;5062185;28;9068;-70
2021/05/16 09:40:42;;;;;;;;;0.00;0.00;;;;;;;;5062335;28;8937;-71
2021/05/16 09:43:17;;;;;;;;;0.00;0.00;;;;;;;;5063153;28;8959;-72
2021/05/16 09:45:49;;;;;;;;;2.00;0.75;;;;;;;;5062758;28;8949;-73
2021/05/16 09:48:19;;;;;;;;;1.00;1.00;;;;;;;;5060788;28;8825;-71
2021/05/16 09:51:04;;;;;;;;;0.25;0.00;;;;;;;;5062395;28;8872;-72
2021/05/16 09:53:31;;;;;;;;;1.50;0.00;;;;;;;;5059926;28;8872;-72
2021/05/16 09:56:14;;;;;;;;;0.00;0.00;;;;;;;;5061617;28;9007;-73
2021/05/16 09:58:40;;;;;;;;;0.50;0.00;;;;;;;;5059253;28;8872;-72
2021/05/16 10:01:08;;;;;;;;;2.25;0.00;;;;;;;;5058699;28;9592;-73
2021/05/16 10:03:35;;;;;;;;;0.33;0.33;;;;;;;;5062530;28;8869;-71
2021/05/16 10:06:04;;;;;;;;;0.00;0.00;;;;;;;;5057749;28;8885;-71
2021/05/16 10:08:32;;;;;;;;;0.00;0.00;;;;;;;;5054498;28;8887;-70
2021/05/16 10:11:01;;;;;;;;;1.00;1.00;;;;;;;;5052560;28;8991;-70
2021/05/16 10:13:31;;;;;;;;;2.50;1.00;;;;;;;;5059875;28;8871;-69
2021/05/16 10:15:59;;;;;;;;;0.25;0.25;;;;;;;;5061632;28;8941;-69
2021/05/16 10:18:28;;;;;;;;;0.25;0.25;;;;;;;;5060540;28;9307;-70
2021/05/16 10:20:55;;;;;;;;;0.00;0.00;;;;;;;;5060270;28;8855;-72
2021/05/16 10:23:39;;;;;;;;;1.00;0.00;;;;;;;;5060416;28;8844;-70
2021/05/16 10:26:17;;;;;;;;;1.00;0.00;;;;;;;;5057585;28;8894;-70
2021/05/16 10:29:09;;;;;;;;;1.00;1.00;;;;;;;;5058912;28;8852;-71
2021/05/16 10:31:41;;;;;;;;;1.00;1.00;;;;;;;;5049163;28;8808;-71
2021/05/16 10:34:41;;;;;;;;;0.75;0.75;;;;;;;;5059475;28;9018;-70
2021/05/16 10:37:10;;;;;;;;;0.50;0.50;;;;;;;;5060518;28;8898;-71
2021/05/16 10:39:56;;;;;;;;;0.75;0.75;;;;;;;;5052318;28;8898;-70
2021/05/16 10:42:35;;;;;;;;;0.75;0.75;;;;;;;;5044701;28;8937;-71
2021/05/16 10:45:08;;;;;;;;;0.00;0.00;;;;;;;;5040766;28;8860;-71
2021/05/16 10:47:55;;;;;;;;;1.50;0.00;;;;;;;;5053452;28;8854;-71
2021/05/16 10:50:55;;;;;;;;;0.00;0.00;;;;;;;;5056860;28;8867;-71
2021/05/16 10:53:26;;;;;;;;;1.00;1.00;;;;;;;;5062512;28;8860;-71
2021/05/16 10:56:15;;;;;;;;;0.75;0.00;;;;;;;;5057565;28;8883;-70
2021/05/16 10:58:48;;;;;;;;;0.00;0.00;;;;;;;;5062287;28;8892;-70
2021/05/16 11:01:16;;;;;;;;;0.00;0.00;;;;;;;;5055204;28;8940;-74
2021/05/16 11:03:56;;;;;;;;;0.00;0.00;;;;;;;;5056096;28;8884;-71
2021/05/16 11:06:24;;;;;;;;;0.50;0.00;;;;;;;;5056606;28;8848;-71
2021/05/16 11:09:14;;;;;;;;;1.50;0.00;;;;;;;;5052958;28;8883;-70
2021/05/16 11:12:00;;;;;;;;;0.00;0.00;;;;;;;;5060408;28;8848;-70
2021/05/16 11:14:29;;;;;;;;;0.00;0.00;;;;;;;;5058588;28;8910;-70
2021/05/16 11:16:58;;;;;;;;;0.00;0.00;;;;;;;;5058614;28;8989;-69
2021/05/16 11:19:27;;;;;;;;;0.00;0.00;;;;;;;;5057918;28;8887;-69
2021/05/16 11:21:55;;;;;;;;;0.75;0.00;;;;;;;;5060850;28;8902;-72
2021/05/16 11:24:40;;;;;;;;;1.00;0.00;;;;;;;;5060102;28;9344;-71
2021/05/16 11:27:22;;;;;;;;;0.00;0.00;;;;;;;;5060427;28;9775;-71
2021/05/16 11:30:00;;;;;;;;;0.00;0.00;;;;;;;;5058707;28;8864;-72
2021/05/16 11:32:32;;;;;;;;;1.00;0.00;;;;;;;;5060233;28;8801;-71
2021/05/16 11:35:13;;;;;;;;;0.00;0.00;;;;;;;;5060828;28;8860;-71
2021/05/16 11:37:40;;;;;;;;;0.00;0.00;;;;;;;;5059337;28;8979;-70
2021/05/16 11:40:19;;;;;;;;;0.00;0.00;;;;;;;;5055799;28;9097;-70
2021/05/16 11:42:47;;;;;;;;;0.80;0.80;;;;;;;;5053896;28;8850;-70
2021/05/16 11:45:16;;;;;;;;;0.00;0.00;;;;;;;;5057927;28;9014;-72
2021/05/16 11:47:44;;;;;;;;;0.20;0.00;;;;;;;;5055996;28;8868;-71
2021/05/16 11:50:12;;;;;;;;;0.00;0.00;;;;;;;;5053435;28;8857;-71
2021/05/16 11:52:40;;;;;;;;;0.00;0.00;;;;;;;;5062094;28;8848;-71
2021/05/16 11:55:10;;;;;;;;;0.00;0.00;;;;;;;;5059457;28;8876;-71
2021/05/16 11:57:44;;;;;;;;;0.00;0.00;;;;;;;;5058280;28;9748;-71
2021/05/16 12:00:13;;;;;;;;;0.00;0.00;;;;;;;;5061302;28;8857;-70
2021/05/16 12:02:41;;;;;;;;;0.00;0.00;;;;;;;;5060556;28;8867;-71
2021/05/16 12:05:09;;;;;;;;;1.00;0.00;;;;;;;;5062634;28;8917;-74
2021/05/16 12:07:37;;;;;;;;;0.00;0.00;;;;;;;;5044824;28;9614;-72
2021/05/16 12:10:05;;;;;;;;;0.00;0.00;;;;;;;;5056973;28;8880;-73
2021/05/16 12:12:32;;;;;;;;;1.20;0.00;;;;;;;;5058445;28;8892;-72
2021/05/16 12:14:59;;;;;;;;;0.00;0.00;;;;;;;;5040533;28;8939;-72
2021/05/16 12:17:33;;;;;;;;;0.40;0.00;;;;;;;;5061927;28;8895;-71
2021/05/16 12:20:00;;;;;;;;;0.00;0.00;;;;;;;;5057995;28;9418;-71
2021/05/16 12:22:35;;;;;;;;;0.00;0.00;;;;;;;;5062221;28;9464;-72
2021/05/16 12:25:03;;;;;;;;;0.80;0.00;;;;;;;;5061107;28;8979;-71
2021/05/16 12:27:30;;;;;;;;;0.00;0.00;;;;;;;;5054465;28;8862;-72
2021/05/16 12:29:57;;;;;;;;;0.00;0.00;;;;;;;;5059627;28;9016;-72
2021/05/16 12:32:26;;;;;;;;;0.00;0.00;;;;;;;;5060454;28;8894;-73
2021/05/16 12:34:54;;;;;;;;;0.00;0.00;;;;;;;;5045253;28;8864;-72
2021/05/16 12:37:22;;;;;;;;;1.00;0.00;;;;;;;;5061183;28;8897;-72
2021/05/16 12:39:50;;;;;;;;;0.00;0.00;;;;;;;;5060370;28;8916;-73
2021/05/16 12:42:28;;;;;;;;;0.00;0.00;;;;;;;;5041498;28;9031;-72
2021/05/16 12:44:56;;;;;;;;;0.40;0.00;;;;;;;;5057103;28;8956;-70
2021/05/16 12:47:25;;;;;;;;;0.00;0.00;;;;;;;;5053360;28;8873;-71
2021/05/16 12:50:03;;;;;;;;;0.00;0.00;;;;;;;;5055204;28;8855;-72
2021/05/16 12:52:30;;;;;;;;;1.40;0.60;;;;;;;;5059201;28;9668;-72
2021/05/16 12:54:57;;;;;;;;;0.00;0.00;;;;;;;;5059720;28;8860;-73
2021/05/16 12:57:32;;;;;;;;;0.00;0.00;;;;;;;;5059057;28;8979;-73
2021/05/16 12:59:59;;;;;;;;;0.20;0.20;;;;;;;;5060267;28;8975;-71
2021/05/16 13:02:28;;;;;;;;;0.00;0.00;;;;;;;;5060023;28;9764;-71
2021/05/16 13:04:57;;;;;;;;;0.20;0.00;;;;;;;;5060598;28;9001;-71
2021/05/16 13:07:36;;;;;;;;;0.00;0.00;;;;;;;;5060246;28;8879;-76
2021/05/16 13:10:34;;;;;;;;;0.00;0.00;;;;;;;;5062848;28;8892;-72
2021/05/16 13:13:12;;;;;;;;;0.00;0.00;;;;;;;;5058166;28;8858;-71
2021/05/16 13:15:41;;;;;;;;;0.00;0.00;;;;;;;;5042295;28;8863;-74
2021/05/16 13:18:27;;;;;;;;;3.00;0.00;;;;;;;;5059836;28;8863;-71
2021/05/16 13:20:54;;;;;;;;;0.00;0.00;;;;;;;;5056324;28;8906;-71
2021/05/16 13:23:24;;;;;;;;;0.00;0.00;;;;;;;;5056758;28;8870;-74
2021/05/16 13:25:51;;;;;;;;;0.00;0.00;;;;;;;;5055382;28;8864;-71
2021/05/16 13:28:20;;;;;;;;;0.00;0.00;;;;;;;;5060860;28;9003;-71
2021/05/16 13:30:53;;;;;;;;;0.00;0.00;;;;;;;;5061394;28;8874;-71
2021/05/16 13:33:20;;;;;;;;;0.00;0.00;;;;;;;;5041244;28;8883;-71
2021/05/16 13:35:47;;;;;;;;;0.00;0.00;;;;;;;;5062511;28;8872;-72
2021/05/16 13:38:14;;;;;;;;;0.00;0.00;;;;;;;;5050173;28;8989;-71
2021/05/16 13:40:42;;;;;;;;;0.00;0.00;;;;;;;;5060197;28;8876;-72
2021/05/16 13:43:09;;;;;;;;;0.80;0.00;;;;;;;;5052795;28;8923;-71
2021/05/16 13:45:36;;;;;;;;;0.00;0.00;;;;;;;;5050857;28;8893;-71
2021/05/16 13:48:03;;;;;;;;;0.00;0.00;;;;;;;;5042042;28;10037;-71
2021/05/16 13:50:30;;;;;;;;;0.00;0.00;;;;;;;;5060321;28;8863;-72
2021/05/16 13:52:57;;;;;;;;;7.75;7.00;;;;;;;;5058921;28;8845;-72
2021/05/16 13:55:24;;;;;;;;;2.60;0.00;;;;;;;;5050525;28;9704;-74
2021/05/16 13:57:51;;;;;;;;;1.00;1.00;;;;;;;;5059626;28;8884;-73
2021/05/16 14:00:18;;;;;;;;;0.00;0.00;;;;;;;;5057098;28;8852;-70
2021/05/16 14:02:45;;;;;;;;;0.00;0.00;;;;;;;;5061830;28;8938;-72
2021/05/16 14:05:13;;;;;;;;;0.00;0.00;;;;;;;;5060580;28;8864;-72
2021/05/16 14:07:39;;;;;;;;;1.00;0.00;;;;;;;;5038314;28;8886;-72
2021/05/16 14:10:07;;;;;;;;;1.50;0.00;;;;;;;;5061030;28;8902;-73
2021/05/16 14:12:34;;;;;;;;;0.00;0.00;;;;;;;;5059142;28;8884;-72
2021/05/16 14:15:02;;;;;;;;;1.00;0.00;;;;;;;;5062299;28;8973;-73
2021/05/16 14:17:29;;;;;;;;;0.00;0.00;;;;;;;;5062691;28;8964;-71
2021/05/16 14:19:56;;;;;;;;;0.00;0.00;;;;;;;;5059423;28;9575;-72
2021/05/16 14:22:23;;;;;;;;;0.00;0.00;;;;;;;;5044816;28;8849;-71
2021/05/16 14:24:50;;;;;;;;;0.00;0.00;;;;;;;;5043582;28;8895;-73
2021/05/16 14:27:17;;;;;;;;;0.00;0.00;;;;;;;;5062076;28;9003;-73
2021/05/16 14:29:44;;;;;;;;;0.00;0.00;;;;;;;;5060734;28;9644;-73
2021/05/16 14:32:12;;;;;;;;;1.60;0.00;;;;;;;;5061612;28;8823;-72
2021/05/16 14:34:39;;;;;;;;;0.00;0.00;;;;;;;;5044006;28;8922;-72
2021/05/16 14:37:06;;;;;;;;;0.00;0.00;;;;;;;;5062730;28;8887;-73
2021/05/16 14:39:33;;;;;;;;;0.20;0.00;;;;;;;;5061483;28;8944;-72
2021/05/16 14:42:00;;;;;;;;;0.60;0.60;;;;;;;;5061833;28;8882;-72
2021/05/16 14:44:27;;;;;;;;;1.40;0.00;;;;;;;;5062015;28;8995;-73
2021/05/16 14:46:54;;;;;;;;;2.00;0.00;;;;;;;;5062162;28;9860;-73
2021/05/16 14:49:22;;;;;;;;;0.00;0.00;;;;;;;;5061696;28;8971;-73
2021/05/16 14:51:49;;;;;;;;;0.00;0.00;;;;;;;;5062287;28;9684;-72
2021/05/16 14:54:16;;;;;;;;;1.00;0.00;;;;;;;;5045430;28;8868;-73
2021/05/16 14:56:43;;;;;;;;;0.00;0.00;;;;;;;;5060015;28;8884;-73
2021/05/16 14:59:10;;;;;;;;;0.00;0.00;;;;;;;;5062240;28;8898;-73
2021/05/16 15:01:37;;;;;;;;;0.00;0.00;;;;;;;;5044298;28;8829;-72
2021/05/16 15:04:04;;;;;;;;;0.00;0.00;;;;;;;;5056703;28;8896;-72
2021/05/16 15:06:32;;;;;;;;;0.00;0.00;;;;;;;;5063016;28;9678;-73